createdAt,value
2023-02-26T00:01:32.518Z,-1.89
2023-02-26T00:04:03.338Z,-1.79
2023-02-26T00:06:33.286Z,-1.79
2023-02-26T00:09:01.087Z,-1.76
2023-02-26T00:11:29.349Z,-1.71
2023-02-26T00:13:57.397Z,-1.78
2023-02-26T00:16:29.214Z,-1.79
2023-02-26T00:18:57.290Z,-1.76
2023-02-26T00:21:26.954Z,-1.73
2023-02-26T00:23:54.798Z,-1.69
2023-02-26T00:26:24.459Z,-1.74
2023-02-26T00:28:52.648Z,-1.79
2023-02-26T00:31:24.662Z,-1.73
2023-02-26T00:33:53.089Z,-1.75
2023-02-26T00:36:23.908Z,-1.68
2023-02-26T00:39:05.204Z,-1.72
2023-02-26T00:41:33.465Z,-1.59
2023-02-26T00:44:01.472Z,-1.58
2023-02-26T00:46:37.771Z,-1.72
2023-02-26T00:49:15.534Z,-1.76
2023-02-26T00:51:48.202Z,-2.01
2023-02-26T00:54:19.465Z,-2.15
2023-02-26T00:56:47.116Z,-2.05
2023-02-26T00:59:14.904Z,-2.21
2023-02-26T01:01:42.756Z,-2.31
2023-02-26T01:04:12.017Z,-2.30
2023-02-26T01:06:43.289Z,-2.38
2023-02-26T01:09:15.814Z,-2.44
2023-02-26T01:11:45.517Z,-2.41
2023-02-26T01:14:41.784Z,-2.40
2023-02-26T01:17:12.536Z,-2.39
2023-02-26T01:19:43.187Z,-2.39
2023-02-26T01:22:20.422Z,-2.35
2023-02-26T01:24:48.705Z,-2.47
2023-02-26T01:27:18.111Z,-2.56
2023-02-26T01:29:46.194Z,-2.43
2023-02-26T01:32:17.480Z,-2.39
2023-02-26T01:34:50.005Z,-2.50
2023-02-26T01:37:22.930Z,-2.44
2023-02-26T01:40:01.883Z,-2.44
2023-02-26T01:42:32.996Z,-2.44
2023-02-26T01:45:02.632Z,-2.47
2023-02-26T01:47:34.788Z,-2.39
2023-02-26T01:50:11.032Z,-2.43
2023-02-26T01:53:11.247Z,-2.29
2023-02-26T01:55:38.928Z,-2.25
2023-02-26T01:58:07.928Z,-2.34
2023-02-26T02:00:35.542Z,-2.47
2023-02-26T02:03:03.351Z,-2.52
2023-02-26T02:05:34.486Z,-2.45
2023-02-26T02:08:02.343Z,-2.54
2023-02-26T02:10:30.482Z,-2.64
2023-02-26T02:13:05.135Z,-2.54
2023-02-26T02:15:39.833Z,-2.63
2023-02-26T02:18:13.275Z,-2.71
2023-02-26T02:21:01.627Z,-2.77
2023-02-26T02:23:33.470Z,-2.81
2023-02-26T02:26:39.671Z,-2.86
2023-02-26T02:29:37.421Z,-2.80
2023-02-26T02:32:08.285Z,-2.82
2023-02-26T02:34:38.044Z,-2.79
2023-02-26T02:37:08.337Z,-2.95
2023-02-26T02:39:40.026Z,-2.93
2023-02-26T02:42:10.146Z,-2.86
2023-02-26T02:44:41.568Z,-2.98
2023-02-26T02:47:11.692Z,-3.00
2023-02-26T02:49:44.927Z,-2.92
2023-02-26T02:52:16.752Z,-2.89
2023-02-26T02:54:49.302Z,-3.05
2023-02-26T02:57:21.411Z,-2.99
2023-02-26T02:59:51.264Z,-2.97
2023-02-26T03:02:23.925Z,-3.07
2023-02-26T03:04:51.591Z,-2.99
2023-02-26T03:07:19.330Z,-2.89
2023-02-26T03:09:47.491Z,-2.84
2023-02-26T03:12:15.316Z,-2.90
2023-02-26T03:14:43.935Z,-2.85
2023-02-26T03:17:23.534Z,-2.83
2023-02-26T03:20:01.376Z,-2.87
2023-02-26T03:22:35.530Z,-2.89
2023-02-26T03:25:08.688Z,-2.81
2023-02-26T03:27:41.585Z,-2.88
2023-02-26T03:30:15.990Z,-3.10
2023-02-26T03:32:51.875Z,-3.03
2023-02-26T03:35:23.553Z,-2.98
2023-02-26T03:37:53.329Z,-3.01
2023-02-26T03:40:25.938Z,-3.01
2023-02-26T03:42:56.638Z,-3.15
2023-02-26T03:45:26.598Z,-3.22
2023-02-26T03:47:56.108Z,-3.26
2023-02-26T03:50:28.689Z,-3.26
2023-02-26T03:52:56.371Z,-3.41
2023-02-26T03:55:28.556Z,-3.44
2023-02-26T03:57:56.427Z,-3.38
2023-02-26T04:00:24.258Z,-3.40
2023-02-26T04:02:59.414Z,-3.44
2023-02-26T04:05:28.666Z,-3.48
2023-02-26T04:07:56.446Z,-3.42
2023-02-26T04:10:35.413Z,-3.50
2023-02-26T04:13:03.932Z,-3.48
2023-02-26T04:15:31.586Z,-3.53
2023-02-26T04:18:00.543Z,-3.47
2023-02-26T04:20:28.141Z,-3.46
2023-02-26T04:22:55.760Z,-3.56
2023-02-26T04:25:23.432Z,-3.56
2023-02-26T04:27:51.146Z,-3.57
2023-02-26T04:30:19.089Z,-3.53
2023-02-26T04:32:46.704Z,-3.57
2023-02-26T04:35:16.100Z,-3.68
2023-02-26T04:37:43.770Z,-3.74
2023-02-26T04:40:12.663Z,-3.84
2023-02-26T04:42:40.343Z,-3.77
2023-02-26T04:45:08.473Z,-3.76
2023-02-26T04:47:36.153Z,-3.69
2023-02-26T04:50:04.473Z,-3.79
2023-02-26T04:52:33.497Z,-3.76
2023-02-26T04:55:01.106Z,-3.79
2023-02-26T04:57:28.755Z,-3.87
2023-02-26T04:59:56.343Z,-3.91
2023-02-26T05:02:23.978Z,-3.91
2023-02-26T05:04:51.565Z,-3.93
2023-02-26T05:07:19.183Z,-4.04
2023-02-26T05:09:48.158Z,-4.00
2023-02-26T05:12:16.109Z,-3.95
2023-02-26T05:14:43.706Z,-3.94
2023-02-26T05:17:11.302Z,-4.10
2023-02-26T05:19:38.898Z,-4.08
2023-02-26T05:22:06.515Z,-4.04
2023-02-26T05:24:35.140Z,-4.02
2023-02-26T05:27:04.177Z,-4.03
2023-02-26T05:29:32.040Z,-3.97
2023-02-26T05:31:59.649Z,-4.00
2023-02-26T05:34:27.279Z,-4.10
2023-02-26T05:36:54.863Z,-4.15
2023-02-26T05:39:22.525Z,-4.24
2023-02-26T05:41:51.849Z,-4.23
2023-02-26T05:44:20.773Z,-4.29
2023-02-26T05:46:48.444Z,-4.39
2023-02-26T05:49:16.103Z,-4.40
2023-02-26T05:51:43.743Z,-4.58
2023-02-26T05:54:11.620Z,-4.58
2023-02-26T05:56:39.211Z,-4.66
2023-02-26T05:59:06.814Z,-4.60
2023-02-26T06:01:37.230Z,-4.75
2023-02-26T06:04:05.260Z,-4.73
2023-02-26T06:06:33.006Z,-4.82
2023-02-26T06:09:01.279Z,-4.79
2023-02-26T06:11:29.021Z,-4.86
2023-02-26T06:13:56.944Z,-4.78
2023-02-26T06:16:25.464Z,-4.79
2023-02-26T06:18:54.687Z,-4.81
2023-02-26T06:21:22.299Z,-4.93
2023-02-26T06:23:49.883Z,-5.05
2023-02-26T06:26:17.469Z,-5.01
2023-02-26T06:28:45.092Z,-5.07
2023-02-26T06:31:12.818Z,-4.96
2023-02-26T06:33:40.426Z,-4.90
2023-02-26T06:36:09.668Z,-4.80
2023-02-26T06:38:37.294Z,-4.72
2023-02-26T06:41:05.212Z,-4.66
2023-02-26T06:43:32.909Z,-4.55
2023-02-26T06:46:01.064Z,-4.48
2023-02-26T06:48:29.042Z,-4.41
2023-02-26T06:50:56.654Z,-4.36
2023-02-26T06:53:25.652Z,-4.31
2023-02-26T06:55:54.135Z,-4.24
2023-02-26T06:58:22.235Z,-4.22
2023-02-26T07:00:49.876Z,-4.17
2023-02-26T07:03:18.653Z,-4.18
2023-02-26T07:05:46.269Z,-4.14
2023-02-26T07:08:14.476Z,-4.06
2023-02-26T07:10:43.755Z,-3.96
2023-02-26T07:13:11.348Z,-3.95
2023-02-26T07:15:38.980Z,-4.10
2023-02-26T07:18:06.755Z,-4.27
2023-02-26T07:20:34.527Z,-4.30
2023-02-26T07:23:02.842Z,-4.32
2023-02-26T07:25:30.575Z,-4.36
2023-02-26T07:28:00.886Z,-4.48
2023-02-26T07:30:28.757Z,-4.40
2023-02-26T07:32:56.440Z,-4.30
2023-02-26T07:35:24.043Z,-4.18
2023-02-26T07:37:51.993Z,-4.05
2023-02-26T07:40:19.877Z,-3.89
2023-02-26T07:42:47.451Z,-3.80
2023-02-26T07:45:18.489Z,-3.76
2023-02-26T07:47:46.046Z,-3.67
2023-02-26T07:50:13.709Z,-3.69
2023-02-26T07:52:41.744Z,-3.74
2023-02-26T07:55:10.571Z,-3.83
2023-02-26T07:57:38.779Z,-3.70
2023-02-26T08:00:09.802Z,-3.63
2023-02-26T08:02:38.875Z,-3.47
2023-02-26T08:05:06.989Z,-3.62
2023-02-26T08:07:34.574Z,-3.65
2023-02-26T08:10:02.208Z,-3.65
2023-02-26T08:12:30.108Z,-3.53
2023-02-26T08:14:57.694Z,-3.59
2023-02-26T08:17:25.284Z,-3.55
2023-02-26T08:19:54.653Z,-3.61
2023-02-26T08:22:23.692Z,-3.54
2023-02-26T08:24:51.366Z,-3.40
2023-02-26T08:27:18.955Z,-3.31
2023-02-26T08:29:47.197Z,-3.26
2023-02-26T08:32:15.943Z,-3.16
2023-02-26T08:34:43.637Z,-3.09
2023-02-26T08:37:12.653Z,-3.08
2023-02-26T08:39:40.481Z,-3.05
2023-02-26T08:42:09.514Z,-3.08
2023-02-26T08:44:37.126Z,-3.09
2023-02-26T08:47:04.814Z,-3.03
2023-02-26T08:49:32.422Z,-3.12
2023-02-26T08:52:00.014Z,-3.09
2023-02-26T08:54:28.966Z,-3.01
2023-02-26T08:56:57.747Z,-2.96
2023-02-26T08:59:25.602Z,-3.04
2023-02-26T09:01:53.583Z,-3.01
2023-02-26T09:04:21.376Z,-2.94
2023-02-26T09:06:48.952Z,-2.87
2023-02-26T09:09:16.536Z,-2.89
2023-02-26T09:11:45.481Z,-2.85
2023-02-26T09:14:13.058Z,-2.78
2023-02-26T09:16:40.721Z,-2.75
2023-02-26T09:19:08.422Z,-2.71
2023-02-26T09:21:36.611Z,-2.64
2023-02-26T09:24:04.446Z,-2.64
2023-02-26T09:26:32.181Z,-2.54
2023-02-26T09:29:01.153Z,-2.51
2023-02-26T09:31:29.213Z,-2.46
2023-02-26T09:33:56.861Z,-2.38
2023-02-26T09:36:24.788Z,-2.35
2023-02-26T09:38:52.521Z,-2.30
2023-02-26T09:41:23.505Z,-2.26
2023-02-26T09:44:03.572Z,-2.22
2023-02-26T09:46:38.442Z,-2.27
2023-02-26T09:49:15.936Z,-2.24
2023-02-26T09:51:43.647Z,-2.16
2023-02-26T09:54:16.570Z,-1.98
2023-02-26T09:56:44.882Z,-1.83
2023-02-26T09:59:13.932Z,-1.80
2023-02-26T10:01:48.623Z,-1.75
2023-02-26T10:04:26.485Z,-1.71
2023-02-26T10:07:04.181Z,-1.80
2023-02-26T10:09:42.712Z,-1.80
2023-02-26T10:12:13.641Z,-1.88
2023-02-26T10:14:45.925Z,-1.85
2023-02-26T10:17:19.341Z,-1.82
2023-02-26T10:19:50.177Z,-1.78
2023-02-26T10:22:21.840Z,-1.80
2023-02-26T10:24:51.961Z,-1.66
2023-02-26T10:27:23.344Z,-1.55
2023-02-26T10:29:59.073Z,-1.72
2023-02-26T10:32:31.669Z,-1.71
2023-02-26T10:35:02.732Z,-1.64
2023-02-26T10:37:40.156Z,-1.67
2023-02-26T10:40:14.399Z,-1.60
2023-02-26T10:42:44.704Z,-1.67
2023-02-26T10:45:25.554Z,-1.64
2023-02-26T10:48:01.601Z,-1.62
2023-02-26T10:50:30.612Z,-1.60
2023-02-26T10:52:58.884Z,-1.76
2023-02-26T10:55:31.818Z,-1.61
2023-02-26T10:58:05.392Z,-1.45
2023-02-26T11:00:36.218Z,-1.36
2023-02-26T11:03:05.603Z,-1.31
2023-02-26T11:05:34.468Z,-1.18
2023-02-26T11:08:04.407Z,-1.37
2023-02-26T11:10:41.838Z,-1.21
2023-02-26T11:13:10.337Z,-0.99
2023-02-26T11:15:39.356Z,-0.71
2023-02-26T11:18:12.374Z,-1.12
2023-02-26T11:20:43.367Z,-1.21
2023-02-26T11:23:14.274Z,-1.40
2023-02-26T11:25:42.061Z,-1.47
2023-02-26T11:28:21.435Z,-1.63
2023-02-26T11:30:54.165Z,-1.56
2023-02-26T11:33:25.348Z,-1.57
2023-02-26T11:35:53.610Z,-1.47
2023-02-26T11:38:23.921Z,-1.43
2023-02-26T11:40:55.977Z,-1.41
2023-02-26T11:43:25.470Z,-1.32
2023-02-26T11:45:56.554Z,-1.29
2023-02-26T11:48:26.562Z,-1.28
2023-02-26T11:50:56.568Z,-1.24
2023-02-26T11:53:28.346Z,-1.26
2023-02-26T11:56:01.786Z,-1.22
2023-02-26T11:58:31.574Z,-1.06
2023-02-26T12:01:02.644Z,-0.98
2023-02-26T12:03:34.220Z,-0.88
2023-02-26T12:06:02.901Z,-0.80
2023-02-26T12:08:32.509Z,-0.71
2023-02-26T12:11:10.755Z,-0.67
2023-02-26T12:13:46.874Z,-0.71
2023-02-26T12:16:20.306Z,-0.69
2023-02-26T12:18:59.384Z,-0.94
2023-02-26T12:21:53.450Z,-0.67
2023-02-26T12:24:33.079Z,-0.74
2023-02-26T12:27:06.840Z,-0.33
2023-02-26T12:29:49.766Z,-0.09
2023-02-26T12:32:29.721Z,0.08
2023-02-26T12:35:16.926Z,-0.02
2023-02-26T12:37:53.015Z,-0.20
2023-02-26T12:40:35.420Z,-0.29
2023-02-26T12:43:07.963Z,-0.44
2023-02-26T12:45:43.968Z,-0.96
2023-02-26T12:48:41.274Z,-1.02
2023-02-26T12:51:16.466Z,-1.03
2023-02-26T12:53:54.421Z,-0.96
2023-02-26T12:56:50.880Z,-0.81
2023-02-26T12:59:32.936Z,-0.71
2023-02-26T13:02:11.513Z,-0.56
2023-02-26T13:05:04.914Z,-0.41
2023-02-26T13:07:49.907Z,-0.10
2023-02-26T13:10:28.080Z,-0.05
2023-02-26T13:13:10.446Z,0.01
2023-02-26T13:15:53.581Z,0.16
2023-02-26T13:18:29.254Z,0.30
2023-02-26T13:21:00.634Z,0.23
2023-02-26T13:23:32.552Z,0.34
2023-02-26T13:26:02.336Z,0.27
2023-02-26T13:28:39.351Z,0.30
2023-02-26T13:31:09.819Z,0.43
2023-02-26T13:33:37.992Z,0.50
2023-02-26T13:36:08.549Z,0.48
2023-02-26T13:38:42.158Z,0.25
2023-02-26T13:41:13.752Z,0.01
2023-02-26T13:43:57.859Z,-0.19
2023-02-26T13:46:40.938Z,-0.22
2023-02-26T13:49:14.682Z,0.01
2023-02-26T13:51:45.607Z,-0.02
2023-02-26T13:54:35.168Z,-0.04
2023-02-26T13:57:22.178Z,-146.54
2023-02-26T13:59:55.207Z,-146.54
2023-02-26T14:02:51.648Z,-146.54
2023-02-26T14:05:51.193Z,-146.54
2023-02-26T14:08:46.743Z,-146.54
2023-02-26T14:11:45.676Z,-146.54
2023-02-26T14:14:32.326Z,-146.54
2023-02-26T14:17:45.908Z,-146.54
2023-02-26T14:20:25.727Z,-146.54
2023-02-26T14:23:00.655Z,-146.54
2023-02-26T14:25:34.839Z,-1.01
2023-02-26T14:28:41.647Z,-0.98
2023-02-26T14:31:15.868Z,-0.90
2023-02-26T14:33:47.173Z,-0.96
2023-02-26T14:36:21.566Z,-0.90
2023-02-26T14:38:49.836Z,-0.87
2023-02-26T14:41:28.648Z,-0.86
2023-02-26T14:44:01.504Z,-0.87
2023-02-26T14:46:29.913Z,-0.92
2023-02-26T14:48:58.116Z,-0.85
2023-02-26T14:51:34.476Z,-0.72
2023-02-26T14:54:15.545Z,-0.58
2023-02-26T14:56:59.424Z,-0.55
2023-02-26T14:59:46.140Z,-0.45
2023-02-26T15:02:24.579Z,-0.41
2023-02-26T15:05:21.949Z,-0.30
2023-02-26T15:07:59.546Z,-0.32
2023-02-26T15:10:37.689Z,-0.34
2023-02-26T15:13:16.624Z,-0.36
2023-02-26T15:15:53.533Z,-0.37
2023-02-26T15:18:44.830Z,-0.29
2023-02-26T15:21:18.941Z,-0.15
2023-02-26T15:23:49.193Z,-0.11
2023-02-26T15:26:20.894Z,-0.22
2023-02-26T15:28:50.397Z,-0.34
2023-02-26T15:31:20.529Z,-0.47
2023-02-26T15:33:49.402Z,-0.56
2023-02-26T15:36:21.699Z,-0.63
2023-02-26T15:38:51.352Z,-0.69
2023-02-26T15:41:19.296Z,-0.71
2023-02-26T15:43:52.783Z,-0.72
2023-02-26T15:46:21.984Z,-0.86
2023-02-26T15:48:49.792Z,-0.87
2023-02-26T15:51:19.854Z,-0.90
2023-02-26T15:53:49.431Z,-0.89
2023-02-26T15:56:22.027Z,-0.81
2023-02-26T15:58:53.249Z,-0.86
2023-02-26T16:01:22.824Z,-0.82
2023-02-26T16:03:52.315Z,-0.84
2023-02-26T16:06:21.873Z,-0.83
2023-02-26T16:08:49.441Z,-0.79
2023-02-26T16:11:17.905Z,-0.76
2023-02-26T16:13:45.703Z,-0.83
2023-02-26T16:16:19.270Z,-0.91
2023-02-26T16:18:47.184Z,-0.88
2023-02-26T16:21:23.112Z,-0.89
2023-02-26T16:23:54.703Z,-0.91
2023-02-26T16:26:24.396Z,-0.95
2023-02-26T16:28:57.525Z,-0.92
2023-02-26T16:31:27.766Z,-0.95
2023-02-26T16:33:59.551Z,-0.94
2023-02-26T16:36:30.590Z,-0.94
2023-02-26T16:39:01.504Z,-0.94
2023-02-26T16:41:31.418Z,-1.01
2023-02-26T16:44:01.298Z,-1.09
2023-02-26T16:46:42.600Z,-1.10
2023-02-26T16:49:15.989Z,-1.20
2023-02-26T16:51:43.674Z,-1.20
2023-02-26T16:54:17.017Z,-1.18
2023-02-26T16:56:44.766Z,-1.18
2023-02-26T16:59:14.410Z,-1.16
2023-02-26T17:01:51.157Z,-1.17
2023-02-26T17:04:19.620Z,-1.17
2023-02-26T17:06:48.398Z,-1.19
2023-02-26T17:09:34.747Z,-1.16
2023-02-26T17:12:11.722Z,-1.14
2023-02-26T17:14:41.978Z,-1.32
2023-02-26T17:17:11.340Z,-1.41
2023-02-26T17:19:39.346Z,-1.38
2023-02-26T17:22:10.784Z,-1.45
2023-02-26T17:24:40.859Z,-1.49
2023-02-26T17:27:09.242Z,-1.47
2023-02-26T17:29:39.588Z,-1.59
2023-02-26T17:32:09.840Z,-1.60
2023-02-26T17:34:38.884Z,-1.64
2023-02-26T17:37:07.842Z,-1.71
2023-02-26T17:39:35.601Z,-1.71
2023-02-26T17:42:03.212Z,-1.70
2023-02-26T17:44:30.856Z,-1.64
2023-02-26T17:46:58.438Z,-1.65
2023-02-26T17:49:26.082Z,-1.64
2023-02-26T17:51:55.047Z,-1.68
2023-02-26T17:54:22.643Z,-1.69
2023-02-26T17:56:50.513Z,-1.67
2023-02-26T17:59:18.110Z,-1.61
2023-02-26T18:01:45.667Z,-1.57
2023-02-26T18:04:13.425Z,-1.66
2023-02-26T18:06:41.121Z,-1.65
2023-02-26T18:09:12.374Z,-1.62
2023-02-26T18:11:41.855Z,-1.56
2023-02-26T18:14:10.217Z,-1.55
2023-02-26T18:16:40.304Z,-1.58
2023-02-26T18:19:08.561Z,-1.58
2023-02-26T18:21:36.207Z,-1.62
2023-02-26T18:24:03.815Z,-1.70
2023-02-26T18:26:34.101Z,-1.73
2023-02-26T18:29:01.836Z,-1.81
2023-02-26T18:31:34.531Z,-1.77
2023-02-26T18:34:02.876Z,-1.78
2023-02-26T18:36:34.545Z,-1.83
2023-02-26T18:39:03.113Z,-1.82
2023-02-26T18:41:32.633Z,-1.89
2023-02-26T18:44:00.748Z,-1.93
2023-02-26T18:46:29.920Z,-1.99
2023-02-26T18:48:57.558Z,-2.01
2023-02-26T18:51:25.594Z,-1.97
2023-02-26T18:53:54.307Z,-1.94
2023-02-26T18:56:21.904Z,-2.03
2023-02-26T18:58:50.815Z,-2.07
2023-02-26T19:01:18.563Z,-2.08
2023-02-26T19:03:46.188Z,-2.06
2023-02-26T19:06:13.831Z,-2.02
2023-02-26T19:08:41.420Z,-1.99
2023-02-26T19:11:09.109Z,-1.97
2023-02-26T19:13:37.038Z,-1.90
2023-02-26T19:16:06.763Z,-1.86
2023-02-26T19:18:34.560Z,-1.87
2023-02-26T19:21:04.654Z,-1.88
2023-02-26T19:23:32.290Z,-1.87
2023-02-26T19:25:59.932Z,-1.91
2023-02-26T19:28:27.507Z,-1.98
2023-02-26T19:30:55.807Z,-1.92
2023-02-26T19:33:24.961Z,-1.90
2023-02-26T19:35:52.928Z,-1.97
2023-02-26T19:38:20.605Z,-1.93
2023-02-26T19:40:48.641Z,-1.94
2023-02-26T19:43:16.278Z,-1.99
2023-02-26T19:45:43.841Z,-1.95
2023-02-26T19:48:11.476Z,-2.01
2023-02-26T19:50:40.542Z,-2.03
2023-02-26T19:53:08.181Z,-2.05
2023-02-26T19:55:35.906Z,-2.06
2023-02-26T19:58:03.562Z,-2.07
2023-02-26T20:00:31.408Z,-2.03
2023-02-26T20:02:59.188Z,-2.13
2023-02-26T20:05:26.869Z,-2.08
2023-02-26T20:07:56.334Z,-2.07
2023-02-26T20:10:24.426Z,-2.11
2023-02-26T20:12:52.106Z,-2.10
2023-02-26T20:15:19.828Z,-2.13
2023-02-26T20:17:47.499Z,-2.10
2023-02-26T20:20:15.348Z,-2.16
2023-02-26T20:22:43.010Z,-2.14
2023-02-26T20:25:12.126Z,-2.07
2023-02-26T20:27:39.965Z,-2.07
2023-02-26T20:30:09.135Z,-2.08
2023-02-26T20:32:37.106Z,-2.08
2023-02-26T20:35:05.631Z,-2.03
2023-02-26T20:37:33.226Z,-2.03
2023-02-26T20:40:00.859Z,-2.01
2023-02-26T20:42:29.922Z,-2.06
2023-02-26T20:44:57.564Z,-2.09
2023-02-26T20:47:25.246Z,-2.11
2023-02-26T20:49:52.871Z,-2.11
2023-02-26T20:52:20.928Z,-2.14
2023-02-26T20:54:48.524Z,-2.17
2023-02-26T20:57:16.227Z,-2.15
2023-02-26T20:59:45.283Z,-2.19
2023-02-26T21:02:15.412Z,-2.19
2023-02-26T21:04:43.215Z,-2.22
2023-02-26T21:07:17.602Z,-2.20
2023-02-26T21:09:48.037Z,-2.24
2023-02-26T21:12:16.382Z,-2.30
2023-02-26T21:14:45.473Z,-2.31
2023-02-26T21:17:13.096Z,-2.31
2023-02-26T21:19:40.734Z,-2.29
2023-02-26T21:22:08.447Z,-2.26
2023-02-26T21:24:36.027Z,-2.22
2023-02-26T21:27:03.655Z,-2.17
2023-02-26T21:29:31.292Z,-2.18
2023-02-26T21:32:03.474Z,-2.17
2023-02-26T21:34:34.266Z,-2.16
2023-02-26T21:37:02.636Z,-2.17
2023-02-26T21:39:30.678Z,-2.22
2023-02-26T21:42:00.131Z,-2.29
2023-02-26T21:44:28.401Z,-2.39
2023-02-26T21:46:57.339Z,-2.43
2023-02-26T21:49:27.055Z,-2.44
2023-02-26T21:51:54.818Z,-2.41
2023-02-26T21:54:22.839Z,-2.37
2023-02-26T21:56:50.442Z,-2.45
2023-02-26T21:59:18.096Z,-2.42
2023-02-26T22:01:45.799Z,-2.38
2023-02-26T22:04:13.599Z,-2.40
2023-02-26T22:06:42.647Z,-2.42
2023-02-26T22:09:10.269Z,-2.37
2023-02-26T22:11:37.871Z,-2.38
2023-02-26T22:14:05.468Z,-2.35
2023-02-26T22:16:33.201Z,-2.36
2023-02-26T22:19:00.823Z,-2.33
2023-02-26T22:21:28.745Z,-2.31
2023-02-26T22:23:58.026Z,-2.26
2023-02-26T22:26:25.671Z,-2.25
2023-02-26T22:28:53.269Z,-2.28
2023-02-26T22:31:20.894Z,-2.32
2023-02-26T22:33:48.583Z,-2.28
2023-02-26T22:36:16.141Z,-2.27
2023-02-26T22:38:43.781Z,-2.25
2023-02-26T22:41:12.711Z,-2.33
2023-02-26T22:43:40.313Z,-2.32
2023-02-26T22:46:08.079Z,-2.30
2023-02-26T22:48:35.686Z,-2.29
2023-02-26T22:51:03.334Z,-2.29
2023-02-26T22:53:31.894Z,-2.31
2023-02-26T22:55:59.533Z,-2.35
2023-02-26T22:58:28.756Z,-2.35
2023-02-26T23:01:00.373Z,-2.31
2023-02-26T23:03:28.120Z,-2.30
2023-02-26T23:05:55.822Z,-2.30
2023-02-26T23:08:23.513Z,-2.28
2023-02-26T23:10:51.268Z,-2.25
2023-02-26T23:13:18.855Z,-2.24
2023-02-26T23:15:47.950Z,-2.22
2023-02-26T23:18:16.121Z,-2.21
2023-02-26T23:20:43.764Z,-2.22
2023-02-26T23:23:11.395Z,-2.27
2023-02-26T23:25:39.056Z,-2.31
2023-02-26T23:28:06.643Z,-2.43
2023-02-26T23:30:34.351Z,-2.42
2023-02-26T23:33:04.291Z,-2.43
2023-02-26T23:35:31.968Z,-2.40
2023-02-26T23:37:59.639Z,-2.41
2023-02-26T23:40:27.298Z,-2.40
2023-02-26T23:42:54.915Z,-2.39
2023-02-26T23:45:22.505Z,-2.38
2023-02-26T23:47:50.082Z,-2.36
2023-02-26T23:50:20.283Z,-2.36
2023-02-26T23:52:47.853Z,-2.34
2023-02-26T23:55:15.668Z,-2.37
2023-02-26T23:57:44.705Z,-2.41
